Whites City, New Mexico
Current Conditions -  °F | °C
As of 11:53 PM on Tuesday 21 Oct 2014 (Local Time) from KCNM Reporting Station
Haze Haze  
Wind Chill: 63°   Ceiling: 1200
Heat Index: 63°   Visibility: 6mi
Dew Point: 60°   Wind: 7mph
Humidity: 90%   Direction: 140°SE
Pressure: 30.06"   Gusts: NA
Location:  32.18°N, 104.37°W
Report Text: KCNM 220553Z AUTO 14006KT 6SM BR BKN012 BKN035 17/16 A3006 RMK AO2 SLP138 T01720156 10194 20172 50000
Loading
Personal Weather Stations






























Interactive Weather Map
Tropical Storm Tracking
New forecast layout! Learn more

10-Day Weather Forecast

Advertisements
Track Severe Weather on mobile